createdAt,value
2022-11-28T00:01:17.911Z,14.07
2022-11-28T00:02:42.000Z,16.98
2022-11-28T00:04:06.643Z,8.75
2022-11-28T00:05:30.020Z,10.00
2022-11-28T00:06:52.412Z,16.75
2022-11-28T00:08:16.229Z,13.27
2022-11-28T00:09:39.591Z,12.15
2022-11-28T00:11:06.994Z,13.10
2022-11-28T00:12:30.443Z,18.85
2022-11-28T00:13:52.965Z,10.73
2022-11-28T00:15:16.506Z,13.85
2022-11-28T00:16:38.940Z,15.32
2022-11-28T00:18:02.362Z,16.20
2022-11-28T00:19:25.734Z,17.65
2022-11-28T00:20:48.092Z,11.57
2022-11-28T00:22:11.518Z,16.30
2022-11-28T00:23:35.198Z,10.50
2022-11-28T00:24:58.658Z,16.92
2022-11-28T00:26:27.147Z,12.02
2022-11-28T00:27:50.573Z,10.15
2022-11-28T00:29:14.438Z,15.30
2022-11-28T00:30:38.371Z,12.90
2022-11-28T00:32:01.784Z,12.15
2022-11-28T00:33:24.379Z,7.63
2022-11-28T00:34:47.935Z,18.00
2022-11-28T00:36:11.298Z,16.13
2022-11-28T00:37:34.669Z,16.27
2022-11-28T00:38:58.144Z,12.55
2022-11-28T00:40:21.716Z,9.38
2022-11-28T00:41:46.560Z,12.10
2022-11-28T00:43:08.942Z,9.25
2022-11-28T00:44:32.359Z,12.60
2022-11-28T00:45:54.792Z,11.90
2022-11-28T00:47:18.318Z,12.93
2022-11-28T00:48:41.203Z,10.68
2022-11-28T00:50:04.937Z,13.55
2022-11-28T00:51:30.440Z,15.45
2022-11-28T00:52:52.825Z,18.55
2022-11-28T00:54:16.203Z,11.77
2022-11-28T00:55:39.320Z,13.80
2022-11-28T00:57:04.043Z,12.00
2022-11-28T00:58:27.441Z,14.20
2022-11-28T00:59:50.804Z,12.85
2022-11-28T01:01:22.791Z,11.43
2022-11-28T01:02:46.265Z,7.90
2022-11-28T01:04:10.843Z,14.65
2022-11-28T01:05:34.293Z,9.20
2022-11-28T01:06:58.189Z,4.13
2022-11-28T01:08:20.563Z,5.28
2022-11-28T01:09:44.013Z,16.05
2022-11-28T01:11:12.083Z,14.77
2022-11-28T01:12:36.851Z,17.05
2022-11-28T01:14:00.848Z,13.70
2022-11-28T01:15:24.566Z,15.85
2022-11-28T01:16:47.976Z,15.70
2022-11-28T01:18:10.440Z,10.27
2022-11-28T01:19:33.799Z,8.38
2022-11-28T01:20:56.329Z,14.88
2022-11-28T01:22:19.718Z,10.43
2022-11-28T01:23:42.108Z,12.60
2022-11-28T01:25:05.932Z,12.45
2022-11-28T01:26:32.267Z,15.07
2022-11-28T01:27:57.004Z,16.42
2022-11-28T01:29:20.356Z,13.38
2022-11-28T01:30:42.754Z,13.10
2022-11-28T01:32:06.609Z,14.70
2022-11-28T01:33:28.985Z,11.77
2022-11-28T01:34:52.565Z,7.40
2022-11-28T01:36:16.605Z,9.55
2022-11-28T01:37:39.973Z,17.30
2022-11-28T01:39:03.391Z,13.93
2022-11-28T01:40:26.925Z,14.88
2022-11-28T01:41:50.372Z,15.70
2022-11-28T01:43:14.130Z,13.45
2022-11-28T01:45:11.454Z,17.25
2022-11-28T01:46:35.856Z,9.35
2022-11-28T01:48:00.407Z,6.35
2022-11-28T01:49:26.894Z,18.42
2022-11-28T01:50:51.791Z,12.85
2022-11-28T01:52:18.015Z,15.43
2022-11-28T01:53:43.498Z,11.98
2022-11-28T01:55:07.872Z,7.53
2022-11-28T01:56:35.585Z,13.43
2022-11-28T01:57:59.387Z,14.40
2022-11-28T01:59:25.190Z,15.50
2022-11-28T02:00:48.763Z,8.50
2022-11-28T02:02:18.515Z,12.20
2022-11-28T02:03:44.489Z,17.15
2022-11-28T02:05:08.852Z,15.30
2022-11-28T02:06:32.894Z,15.82
2022-11-28T02:07:55.384Z,11.82
2022-11-28T02:09:19.284Z,16.00
2022-11-28T02:10:54.696Z,15.55
2022-11-28T02:12:33.171Z,10.20
2022-11-28T02:14:00.477Z,5.32
2022-11-28T02:15:34.854Z,15.77
2022-11-28T02:17:06.216Z,14.23
2022-11-28T02:18:50.172Z,12.05
2022-11-28T02:20:45.288Z,16.52
2022-11-28T02:22:10.567Z,12.50
2022-11-28T02:23:47.938Z,6.10
2022-11-28T02:25:21.972Z,5.30
2022-11-28T02:27:12.878Z,21.83
2022-11-28T02:29:10.136Z,13.05
2022-11-28T02:30:39.799Z,16.85
2022-11-28T02:32:11.650Z,14.13
2022-11-28T02:33:35.765Z,15.25
2022-11-28T02:35:02.097Z,17.42
2022-11-28T02:36:30.877Z,16.88
2022-11-28T02:38:02.007Z,13.70
2022-11-28T02:39:28.932Z,10.30
2022-11-28T02:41:00.916Z,14.27
2022-11-28T02:42:26.463Z,14.90
2022-11-28T02:43:56.938Z,10.93
2022-11-28T02:45:25.074Z,9.88
2022-11-28T02:46:53.924Z,7.07
2022-11-28T02:48:24.490Z,12.07
2022-11-28T02:49:52.704Z,14.10
2022-11-28T02:51:25.956Z,15.73
2022-11-28T02:52:51.972Z,22.23
2022-11-28T02:54:16.264Z,13.15
2022-11-28T02:55:41.381Z,12.40
2022-11-28T02:57:05.024Z,17.45
2022-11-28T02:58:28.767Z,13.57
2022-11-28T02:59:51.958Z,15.80
2022-11-28T03:01:20.394Z,13.88
2022-11-28T03:02:43.498Z,15.10
2022-11-28T03:04:23.532Z,12.10
2022-11-28T03:05:52.348Z,14.20
2022-11-28T03:07:23.375Z,13.32
2022-11-28T03:08:57.612Z,15.02
2022-11-28T03:10:28.244Z,15.80
2022-11-28T03:11:55.931Z,12.00
2022-11-28T03:13:25.926Z,13.93
2022-11-28T03:14:53.395Z,12.23
2022-11-28T03:16:24.904Z,11.63
2022-11-28T03:17:55.490Z,10.05
2022-11-28T03:19:22.523Z,12.27
2022-11-28T03:20:50.342Z,12.52
2022-11-28T03:22:20.839Z,16.00
2022-11-28T03:23:44.809Z,10.45
2022-11-28T03:25:14.313Z,11.13
2022-11-28T03:26:43.698Z,17.48
2022-11-28T03:28:09.875Z,11.88
2022-11-28T03:29:35.819Z,16.17
2022-11-28T03:31:01.914Z,14.52
2022-11-28T03:32:26.376Z,10.90
2022-11-28T03:33:52.805Z,11.50
2022-11-28T03:35:20.848Z,18.27
2022-11-28T03:36:46.094Z,10.55
2022-11-28T03:38:12.451Z,13.23
2022-11-28T03:39:38.413Z,11.85
2022-11-28T03:41:04.646Z,15.38
2022-11-28T03:42:30.487Z,10.80
2022-11-28T03:43:56.027Z,12.90
2022-11-28T03:45:22.644Z,15.18
2022-11-28T03:46:49.023Z,15.52
2022-11-28T03:48:15.428Z,11.88
2022-11-28T03:49:41.587Z,12.48
2022-11-28T03:51:10.640Z,11.88
2022-11-28T03:52:35.979Z,17.77
2022-11-28T03:54:04.593Z,12.55
2022-11-28T03:55:34.335Z,14.88
2022-11-28T03:57:03.809Z,13.27
2022-11-28T03:58:31.253Z,16.40
2022-11-28T03:59:55.731Z,11.15
2022-11-28T04:01:28.007Z,15.20
2022-11-28T04:02:56.136Z,11.98
2022-11-28T04:04:25.627Z,9.80
2022-11-28T04:05:50.900Z,14.70
2022-11-28T04:07:24.062Z,16.00
2022-11-28T04:08:50.962Z,11.63
2022-11-28T04:10:19.146Z,14.93
2022-11-28T04:11:47.659Z,16.38
2022-11-28T04:13:19.632Z,16.45
2022-11-28T04:14:48.254Z,13.90
2022-11-28T04:16:18.832Z,12.10
2022-11-28T04:17:49.082Z,14.00
2022-11-28T04:19:16.654Z,12.30
2022-11-28T04:20:45.640Z,10.73
2022-11-28T04:22:14.181Z,16.35
2022-11-28T04:23:41.277Z,15.77
2022-11-28T04:25:07.709Z,13.95
2022-11-28T04:26:34.904Z,14.98
2022-11-28T04:28:02.704Z,11.68
2022-11-28T04:29:26.920Z,12.02
2022-11-28T04:30:51.813Z,13.80
2022-11-28T04:32:15.825Z,16.73
2022-11-28T04:33:41.521Z,17.73
2022-11-28T04:35:07.038Z,15.07
2022-11-28T04:36:30.865Z,12.60
2022-11-28T04:37:54.888Z,14.30
2022-11-28T04:39:22.609Z,16.48
2022-11-28T04:40:50.602Z,8.90
2022-11-28T04:42:15.608Z,15.52
2022-11-28T04:43:42.424Z,11.38
2022-11-28T04:45:09.896Z,13.88
2022-11-28T04:46:36.628Z,10.55
2022-11-28T04:48:00.253Z,8.25
2022-11-28T04:49:26.147Z,13.38
2022-11-28T04:50:53.850Z,12.60
2022-11-28T04:52:21.259Z,7.88
2022-11-28T04:53:49.279Z,3.67
2022-11-28T04:55:21.515Z,7.63
2022-11-28T04:56:48.695Z,11.18
2022-11-28T04:58:15.557Z,10.10
2022-11-28T04:59:38.615Z,15.35
2022-11-28T05:01:04.260Z,8.82
2022-11-28T05:02:28.212Z,18.02
2022-11-28T05:03:51.888Z,8.55
2022-11-28T05:05:17.125Z,11.85
2022-11-28T05:06:40.653Z,8.77
2022-11-28T05:08:04.248Z,11.05
2022-11-28T05:09:27.696Z,15.25
2022-11-28T05:10:51.577Z,13.27
2022-11-28T05:12:15.223Z,11.95
2022-11-28T05:13:38.584Z,10.32
2022-11-28T05:15:02.021Z,14.50
2022-11-28T05:16:25.639Z,17.85
2022-11-28T05:17:49.256Z,12.02
2022-11-28T05:19:11.703Z,12.10
2022-11-28T05:20:35.301Z,16.77
2022-11-28T05:21:58.656Z,14.45
2022-11-28T05:23:21.042Z,14.75
2022-11-28T05:24:44.684Z,15.10
2022-11-28T05:26:10.729Z,11.68
2022-11-28T05:27:34.145Z,18.83
2022-11-28T05:28:57.548Z,10.75
2022-11-28T05:30:21.135Z,16.88
2022-11-28T05:31:44.739Z,10.35
2022-11-28T05:33:08.390Z,13.70
2022-11-28T05:34:31.176Z,11.27
2022-11-28T05:35:54.539Z,20.27
2022-11-28T05:37:17.932Z,13.63
2022-11-28T05:38:40.528Z,13.68
2022-11-28T05:40:04.064Z,16.27
2022-11-28T05:41:30.434Z,15.48
2022-11-28T05:42:53.870Z,14.32
2022-11-28T05:44:17.294Z,12.23
2022-11-28T05:45:41.788Z,13.57
2022-11-28T05:47:04.335Z,14.10
2022-11-28T05:48:27.829Z,15.52
2022-11-28T05:49:51.253Z,8.57
2022-11-28T05:51:14.775Z,15.73
2022-11-28T05:52:38.172Z,15.10
2022-11-28T05:54:01.544Z,14.07
2022-11-28T05:55:23.942Z,14.38
2022-11-28T05:56:48.859Z,14.20
2022-11-28T05:58:11.335Z,16.55
2022-11-28T05:59:34.939Z,10.80
2022-11-28T06:00:58.522Z,13.60
2022-11-28T06:02:22.162Z,13.20
2022-11-28T06:03:45.990Z,8.55
2022-11-28T06:05:34.633Z,18.80
2022-11-28T06:06:53.608Z,18.95
2022-11-28T06:08:19.792Z,18.90
2022-11-28T06:09:43.368Z,10.88
2022-11-28T06:11:07.471Z,16.17
2022-11-28T06:12:32.252Z,18.35
2022-11-28T06:13:55.867Z,4.88
2022-11-28T06:15:18.835Z,13.10
2022-11-28T06:16:43.576Z,16.98
2022-11-28T06:18:07.136Z,14.90
2022-11-28T06:19:30.608Z,15.15
2022-11-28T06:20:54.368Z,13.32
2022-11-28T06:22:17.828Z,15.63
2022-11-28T06:23:41.294Z,15.27
2022-11-28T06:25:04.939Z,14.30
2022-11-28T06:26:29.242Z,16.27
2022-11-28T06:27:54.003Z,20.17
2022-11-28T06:29:17.412Z,18.55
2022-11-28T06:30:40.908Z,17.15
2022-11-28T06:32:04.414Z,13.07
2022-11-28T06:33:27.863Z,15.90
2022-11-28T06:34:51.295Z,19.70
2022-11-28T06:36:15.280Z,16.40
2022-11-28T06:37:38.698Z,17.33
2022-11-28T06:39:02.069Z,20.65
2022-11-28T06:40:24.458Z,11.05
2022-11-28T06:41:47.864Z,21.67
2022-11-28T06:43:11.662Z,13.27
2022-11-28T06:44:35.044Z,11.57
2022-11-28T06:45:58.803Z,16.10
2022-11-28T06:47:22.397Z,15.60
2022-11-28T06:48:45.727Z,21.10
2022-11-28T06:50:10.590Z,16.83
2022-11-28T06:51:33.963Z,13.32
2022-11-28T06:52:56.532Z,15.07
2022-11-28T06:54:19.869Z,16.98
2022-11-28T06:55:43.608Z,19.13
2022-11-28T06:57:06.986Z,16.45
2022-11-28T06:58:31.739Z,15.13
2022-11-28T06:59:55.179Z,17.52
2022-11-28T07:01:20.723Z,13.80
2022-11-28T07:02:44.222Z,11.25
2022-11-28T07:04:07.680Z,14.55
2022-11-28T07:05:31.168Z,15.07
2022-11-28T07:06:54.546Z,15.13
2022-11-28T07:08:18.013Z,13.18
2022-11-28T07:09:41.874Z,16.30
2022-11-28T07:11:09.677Z,20.38
2022-11-28T07:12:33.045Z,16.60
2022-11-28T07:13:58.307Z,17.73
2022-11-28T07:15:20.783Z,13.85
2022-11-28T07:16:44.189Z,17.25
2022-11-28T07:18:07.669Z,14.88
2022-11-28T07:19:31.052Z,16.55
2022-11-28T07:20:53.472Z,16.58
2022-11-28T07:22:16.806Z,15.20
2022-11-28T07:23:40.262Z,20.15
2022-11-28T07:25:03.647Z,17.00
2022-11-28T07:26:27.377Z,9.65
2022-11-28T07:27:50.737Z,12.93
2022-11-28T07:29:17.670Z,13.75
2022-11-28T07:30:40.067Z,12.27
2022-11-28T07:32:03.928Z,9.68
2022-11-28T07:33:27.338Z,20.60
2022-11-28T07:34:50.713Z,12.02
2022-11-28T07:36:15.636Z,18.65
2022-11-28T07:37:39.031Z,21.63
2022-11-28T07:39:05.036Z,18.30
2022-11-28T07:40:28.816Z,15.02
2022-11-28T07:41:52.489Z,16.67
2022-11-28T07:43:16.235Z,16.08
2022-11-28T07:44:41.003Z,16.92
2022-11-28T07:46:06.613Z,15.68
2022-11-28T07:47:30.071Z,15.65
2022-11-28T07:48:52.953Z,16.33
2022-11-28T07:50:16.335Z,10.65
2022-11-28T07:51:39.870Z,11.43
2022-11-28T07:53:07.186Z,19.45
2022-11-28T07:54:30.868Z,23.17
2022-11-28T07:55:54.236Z,14.60
2022-11-28T07:57:17.672Z,15.20
2022-11-28T07:58:41.045Z,21.08
2022-11-28T08:00:06.663Z,23.65
2022-11-28T08:01:31.582Z,17.33
2022-11-28T08:02:55.349Z,21.67
2022-11-28T08:04:18.774Z,16.95
2022-11-28T08:05:49.245Z,16.73
2022-11-28T08:07:14.471Z,21.15
2022-11-28T08:08:38.180Z,14.68
2022-11-28T08:10:01.596Z,19.45
2022-11-28T08:11:28.281Z,18.10
2022-11-28T08:12:51.702Z,23.33
2022-11-28T08:14:15.160Z,21.38
2022-11-28T08:15:40.256Z,13.70
2022-11-28T08:17:03.796Z,20.38
2022-11-28T08:18:27.310Z,20.20
2022-11-28T08:19:50.655Z,9.77
2022-11-28T08:21:16.003Z,11.95
2022-11-28T08:22:39.467Z,28.95
2022-11-28T08:24:03.718Z,11.55
2022-11-28T08:25:27.093Z,17.65
2022-11-28T08:26:50.491Z,13.95
2022-11-28T08:28:12.976Z,18.75
2022-11-28T08:29:36.396Z,12.65
2022-11-28T08:31:02.090Z,15.93
2022-11-28T08:32:25.701Z,17.38
2022-11-28T08:33:50.312Z,14.43
2022-11-28T08:35:13.672Z,17.35
2022-11-28T08:36:37.483Z,15.82
2022-11-28T08:38:02.144Z,16.90
2022-11-28T08:39:25.929Z,9.38
2022-11-28T08:40:49.415Z,10.40
2022-11-28T08:42:12.789Z,14.20
2022-11-28T08:43:37.469Z,14.43
2022-11-28T08:45:01.367Z,19.10
2022-11-28T08:46:26.248Z,9.13
2022-11-28T08:47:49.724Z,22.60
2022-11-28T08:49:13.111Z,20.00
2022-11-28T08:50:36.503Z,10.63
2022-11-28T08:51:59.879Z,16.70
2022-11-28T08:53:22.290Z,15.32
2022-11-28T08:54:45.979Z,18.55
2022-11-28T08:56:10.124Z,14.68
2022-11-28T08:57:33.465Z,13.05
2022-11-28T08:58:56.893Z,12.85
2022-11-28T09:00:21.301Z,21.80
2022-11-28T09:01:46.225Z,17.20
2022-11-28T09:03:09.725Z,17.40
2022-11-28T09:04:33.076Z,15.68
2022-11-28T09:06:02.367Z,12.77
2022-11-28T09:07:25.822Z,13.73
2022-11-28T09:08:49.778Z,10.45
2022-11-28T09:10:13.208Z,8.43
2022-11-28T09:11:36.625Z,26.02
2022-11-28T09:13:00.094Z,11.50
2022-11-28T09:14:23.611Z,19.30
2022-11-28T09:15:51.265Z,12.60
2022-11-28T09:17:17.528Z,14.20
2022-11-28T09:18:41.278Z,19.98
2022-11-28T09:20:07.080Z,19.55
2022-11-28T09:21:30.551Z,17.10
2022-11-28T09:22:53.939Z,10.13
2022-11-28T09:24:17.404Z,20.73
2022-11-28T09:25:41.190Z,14.50
2022-11-28T09:27:04.628Z,18.67
2022-11-28T09:28:28.746Z,17.88
2022-11-28T09:29:52.105Z,17.20
2022-11-28T09:31:17.244Z,19.70
2022-11-28T09:32:42.103Z,14.82
2022-11-28T09:34:05.656Z,22.88
2022-11-28T09:35:29.180Z,17.67
2022-11-28T09:36:52.553Z,14.15
2022-11-28T09:38:15.991Z,16.75
2022-11-28T09:40:04.754Z,14.23
2022-11-28T09:41:45.695Z,11.73
2022-11-28T09:43:15.427Z,15.13
2022-11-28T09:44:44.399Z,16.20
2022-11-28T09:46:11.630Z,8.90
2022-11-28T09:47:37.235Z,11.77
2022-11-28T09:49:03.542Z,20.42
2022-11-28T09:50:29.606Z,19.60
2022-11-28T09:51:56.024Z,18.65
2022-11-28T09:53:25.105Z,19.00
2022-11-28T09:54:52.673Z,10.50
2022-11-28T09:56:18.072Z,11.93
2022-11-28T09:57:42.854Z,17.90
2022-11-28T09:59:09.917Z,22.35
2022-11-28T10:00:37.841Z,15.57
2022-11-28T10:02:05.919Z,10.35
2022-11-28T10:03:39.138Z,7.95
2022-11-28T10:05:11.213Z,22.50
2022-11-28T10:06:39.479Z,21.30
2022-11-28T10:08:12.459Z,9.48
2022-11-28T10:10:27.247Z,17.00
2022-11-28T10:12:02.080Z,19.08
2022-11-28T10:13:36.538Z,17.60
2022-11-28T10:15:21.738Z,20.88
2022-11-28T10:16:54.153Z,20.45
2022-11-28T10:18:37.439Z,23.33
2022-11-28T10:20:05.655Z,16.20
2022-11-28T10:21:32.419Z,12.65
2022-11-28T10:22:58.816Z,20.95
2022-11-28T10:24:24.628Z,21.30
2022-11-28T10:25:53.661Z,21.00
2022-11-28T10:27:22.444Z,16.80
2022-11-28T10:28:53.222Z,14.88
2022-11-28T10:30:23.590Z,18.48
2022-11-28T10:31:47.670Z,26.40
2022-11-28T10:33:18.058Z,18.00
2022-11-28T10:34:45.385Z,23.55
2022-11-28T10:36:16.455Z,29.23
2022-11-28T10:37:40.981Z,25.17
2022-11-28T10:39:11.292Z,24.15
2022-11-28T10:40:43.738Z,21.17
2022-11-28T10:42:14.310Z,12.65
2022-11-28T10:43:44.016Z,18.02
2022-11-28T10:45:19.088Z,23.08
2022-11-28T10:46:52.041Z,20.33
2022-11-28T10:48:38.911Z,24.23
2022-11-28T10:50:08.211Z,7.35
2022-11-28T10:51:39.633Z,21.27
2022-11-28T10:53:08.578Z,25.10
2022-11-28T10:55:01.048Z,19.42
2022-11-28T10:56:33.267Z,23.95
2022-11-28T10:58:05.304Z,11.13
2022-11-28T10:59:36.990Z,9.23
2022-11-28T11:01:00.931Z,20.83
2022-11-28T11:02:31.843Z,24.80
2022-11-28T11:03:55.239Z,18.08
2022-11-28T11:05:21.850Z,26.00
2022-11-28T11:07:07.867Z,18.50
2022-11-28T11:08:37.186Z,20.52
2022-11-28T11:10:06.697Z,15.95
2022-11-28T11:11:31.870Z,25.67
2022-11-28T11:12:55.317Z,16.15
2022-11-28T11:14:33.639Z,12.65
2022-11-28T11:16:00.672Z,32.70
2022-11-28T11:17:34.378Z,14.77
2022-11-28T11:18:59.231Z,12.25
2022-11-28T11:20:40.746Z,24.77
2022-11-28T11:22:16.162Z,22.02
2022-11-28T11:23:39.686Z,19.08
2022-11-28T11:25:08.101Z,23.83
2022-11-28T11:26:36.059Z,15.35
2022-11-28T11:28:01.938Z,17.23
2022-11-28T11:29:32.242Z,24.85
2022-11-28T11:31:01.107Z,20.88
2022-11-28T11:32:26.515Z,21.88
2022-11-28T11:33:53.050Z,24.02
2022-11-28T11:35:19.524Z,15.48
2022-11-28T11:36:42.966Z,24.20
2022-11-28T11:38:32.353Z,21.13
2022-11-28T11:40:00.451Z,25.42
2022-11-28T11:41:30.663Z,14.68
2022-11-28T11:42:55.923Z,30.00
2022-11-28T11:44:29.803Z,21.88
2022-11-28T11:46:06.523Z,21.83
2022-11-28T11:47:50.582Z,22.55
2022-11-28T11:49:30.532Z,25.33
2022-11-28T11:50:55.620Z,24.23
2022-11-28T11:52:25.258Z,18.42
2022-11-28T11:53:50.606Z,20.58
2022-11-28T11:55:16.612Z,26.38
2022-11-28T11:56:41.259Z,22.67
2022-11-28T11:58:06.007Z,22.77
2022-11-28T11:59:32.234Z,23.27
2022-11-28T12:00:57.648Z,23.27
2022-11-28T12:02:24.573Z,20.27
2022-11-28T12:03:54.784Z,13.95
2022-11-28T12:05:21.042Z,14.98
2022-11-28T12:06:50.739Z,26.13
2022-11-28T12:08:17.639Z,16.33
2022-11-28T12:09:46.643Z,18.55
2022-11-28T12:11:15.781Z,19.23
2022-11-28T12:12:40.197Z,23.48
2022-11-28T12:14:15.234Z,18.70
2022-11-28T12:15:45.755Z,11.30
2022-11-28T12:17:48.395Z,16.88
2022-11-28T12:19:24.815Z,17.48
2022-11-28T12:20:58.308Z,14.82
2022-11-28T12:22:25.483Z,15.50
2022-11-28T12:24:09.720Z,15.25
2022-11-28T12:25:41.072Z,11.23
2022-11-28T12:27:10.784Z,11.02
2022-11-28T12:28:45.805Z,17.40
2022-11-28T12:30:22.754Z,10.98
2022-11-28T12:31:52.961Z,12.60
2022-11-28T12:33:26.243Z,13.77
2022-11-28T12:35:03.707Z,17.35
2022-11-28T12:36:31.311Z,16.35
2022-11-28T12:38:10.860Z,15.43
2022-11-28T12:39:45.389Z,18.20
2022-11-28T12:41:27.617Z,13.98
2022-11-28T12:43:06.520Z,12.70
2022-11-28T12:44:38.146Z,15.27
2022-11-28T12:46:08.978Z,11.15
2022-11-28T12:47:39.865Z,8.05
2022-11-28T12:49:18.055Z,16.10
2022-11-28T12:50:42.953Z,18.13
2022-11-28T12:52:16.117Z,10.05
2022-11-28T12:53:50.072Z,13.60
2022-11-28T12:55:27.804Z,16.25
2022-11-28T12:57:00.102Z,9.02
2022-11-28T12:58:25.716Z,15.25
2022-11-28T12:59:54.265Z,17.17
2022-11-28T13:01:31.166Z,16.83
2022-11-28T13:03:09.844Z,11.40
2022-11-28T13:05:03.435Z,16.30
2022-11-28T13:06:35.999Z,16.38
2022-11-28T13:08:14.526Z,14.48
2022-11-28T13:09:42.898Z,13.02
2022-11-28T13:11:14.739Z,20.40
2022-11-28T13:12:48.521Z,15.77
2022-11-28T13:14:18.059Z,19.65
2022-11-28T13:15:55.432Z,20.08
2022-11-28T13:17:30.171Z,12.93
2022-11-28T13:18:58.111Z,15.13
2022-11-28T13:20:25.826Z,7.63
2022-11-28T13:21:53.498Z,14.68
2022-11-28T13:23:21.376Z,19.20
2022-11-28T13:24:52.595Z,21.67
2022-11-28T13:26:21.524Z,5.45
2022-11-28T13:27:50.194Z,21.30
2022-11-28T13:29:23.209Z,14.95
2022-11-28T13:30:52.179Z,18.80
2022-11-28T13:32:20.440Z,14.85
2022-11-28T13:33:51.223Z,17.63
2022-11-28T13:35:16.480Z,23.30
2022-11-28T13:38:36.992Z,12.85
2022-11-28T13:40:09.315Z,20.58
2022-11-28T13:42:06.378Z,20.25
2022-11-28T13:43:26.714Z,16.52
2022-11-28T13:44:57.715Z,17.02
2022-11-28T13:46:21.529Z,14.45
2022-11-28T13:47:44.968Z,8.35
2022-11-28T13:49:21.025Z,20.08
2022-11-28T13:51:00.829Z,16.42
2022-11-28T13:52:35.088Z,14.07
2022-11-28T13:54:48.709Z,18.42
2022-11-28T13:56:24.554Z,19.58
2022-11-28T13:57:48.135Z,22.30
2022-11-28T13:59:19.153Z,21.42
2022-11-28T14:00:42.975Z,17.00
2022-11-28T14:02:17.081Z,13.30
2022-11-28T14:03:47.245Z,23.10
2022-11-28T14:05:26.428Z,23.15
2022-11-28T14:06:54.509Z,22.67
2022-11-28T14:08:29.161Z,19.35
2022-11-28T14:10:02.046Z,21.38
2022-11-28T14:11:43.899Z,25.17
2022-11-28T14:13:33.639Z,23.42
2022-11-28T14:15:06.622Z,21.45
2022-11-28T14:16:44.238Z,26.48
2022-11-28T14:18:55.243Z,18.30
2022-11-28T14:20:17.996Z,20.00
2022-11-28T14:21:49.945Z,23.23
2022-11-28T14:23:21.412Z,20.77
2022-11-28T14:24:58.153Z,23.58
2022-11-28T14:26:26.587Z,21.35
2022-11-28T14:27:54.490Z,21.80
2022-11-28T14:29:22.748Z,12.30
2022-11-28T14:30:48.473Z,23.38
2022-11-28T14:32:34.798Z,21.30
2022-11-28T14:34:00.577Z,19.17
2022-11-28T14:35:57.331Z,23.52
2022-11-28T14:37:57.681Z,18.25
2022-11-28T14:39:35.088Z,8.55
2022-11-28T14:41:03.245Z,16.55
2022-11-28T14:42:59.471Z,15.70
2022-11-28T14:44:46.686Z,22.20
2022-11-28T14:46:34.177Z,25.00
2022-11-28T14:48:18.973Z,17.02
2022-11-28T14:49:42.416Z,26.65
2022-11-28T14:51:06.029Z,26.08
2022-11-28T14:52:44.937Z,26.67
2022-11-28T14:54:18.931Z,26.60
2022-11-28T14:55:42.383Z,26.75
2022-11-28T14:57:14.565Z,27.08
2022-11-28T14:58:38.211Z,31.23
2022-11-28T15:00:07.835Z,15.95
2022-11-28T15:01:54.033Z,25.65
2022-11-28T15:04:11.748Z,12.23
2022-11-28T15:05:46.533Z,15.15
2022-11-28T15:07:18.117Z,14.90
2022-11-28T15:09:02.994Z,24.95
2022-11-28T15:10:34.148Z,21.08
2022-11-28T15:12:11.388Z,26.77
2022-11-28T15:13:45.878Z,24.17
2022-11-28T15:15:13.767Z,20.13
2022-11-28T15:16:41.090Z,25.85
2022-11-28T15:18:11.281Z,27.15
2022-11-28T15:19:38.761Z,34.00
2022-11-28T15:21:04.461Z,16.75
2022-11-28T15:22:33.397Z,21.00
2022-11-28T15:23:57.193Z,30.90
2022-11-28T15:25:21.721Z,16.35
2022-11-28T15:26:45.225Z,27.23
2022-11-28T15:28:15.563Z,28.33
2022-11-28T15:29:39.007Z,29.88
2022-11-28T15:31:04.846Z,27.55
2022-11-28T15:32:30.521Z,32.97
2022-11-28T15:33:55.346Z,20.60
2022-11-28T15:35:19.624Z,21.00
2022-11-28T15:36:43.379Z,25.15
2022-11-28T15:38:07.036Z,27.17
2022-11-28T15:39:34.886Z,27.88
2022-11-28T15:40:59.233Z,14.38
2022-11-28T15:42:25.155Z,25.83
2022-11-28T15:43:48.726Z,27.40
2022-11-28T15:45:17.885Z,21.95
2022-11-28T15:46:41.317Z,30.83
2022-11-28T15:48:05.585Z,26.95
2022-11-28T15:49:32.630Z,26.55
2022-11-28T15:50:56.278Z,23.60
2022-11-28T15:52:19.656Z,24.27
2022-11-28T15:53:43.271Z,24.20
2022-11-28T15:55:19.961Z,19.67
2022-11-28T15:56:57.840Z,23.67
2022-11-28T15:58:23.369Z,26.13
2022-11-28T15:59:46.878Z,26.88
2022-11-28T16:01:17.282Z,28.95
2022-11-28T16:02:42.615Z,23.02
2022-11-28T16:04:07.997Z,29.85
2022-11-28T16:05:32.857Z,26.77
2022-11-28T16:06:59.314Z,25.65
2022-11-28T16:08:30.312Z,26.17
2022-11-28T16:10:04.863Z,28.23
2022-11-28T16:11:30.625Z,22.67
2022-11-28T16:12:59.460Z,27.02
2022-11-28T16:14:26.864Z,25.23
2022-11-28T16:15:52.445Z,27.98
2022-11-28T16:17:19.917Z,29.80
2022-11-28T16:18:45.991Z,21.55
2022-11-28T16:20:19.363Z,29.80
2022-11-28T16:21:48.289Z,30.65
2022-11-28T16:23:16.123Z,31.27
2022-11-28T16:24:47.411Z,25.38
2022-11-28T16:26:25.729Z,27.60
2022-11-28T16:27:52.999Z,26.98
2022-11-28T16:29:16.537Z,23.42
2022-11-28T16:30:43.598Z,26.88
2022-11-28T16:32:10.551Z,23.25
2022-11-28T16:33:41.625Z,22.38
2022-11-28T16:35:05.378Z,18.48
2022-11-28T16:36:35.694Z,24.63
2022-11-28T16:38:17.780Z,21.25
2022-11-28T16:39:41.303Z,26.98
2022-11-28T16:41:04.818Z,27.13
2022-11-28T16:42:28.437Z,35.03
2022-11-28T16:43:54.954Z,16.63
2022-11-28T16:45:21.921Z,31.50
2022-11-28T16:46:51.587Z,26.08
2022-11-28T16:48:18.310Z,22.20
2022-11-28T16:49:44.020Z,32.20
2022-11-28T16:51:33.723Z,22.88
2022-11-28T16:52:57.811Z,17.45
2022-11-28T16:54:33.114Z,31.90
2022-11-28T16:55:56.487Z,26.60
2022-11-28T16:57:20.859Z,12.77
2022-11-28T16:58:44.235Z,31.55
2022-11-28T17:00:09.666Z,34.65
2022-11-28T17:01:33.086Z,31.05
2022-11-28T17:02:56.523Z,30.00
2022-11-28T17:04:22.175Z,26.98
2022-11-28T17:05:45.636Z,37.45
2022-11-28T17:07:13.702Z,21.42
2022-11-28T17:08:36.133Z,16.77
2022-11-28T17:10:00.863Z,28.98
2022-11-28T17:11:29.761Z,31.35
2022-11-28T17:12:53.125Z,33.42
2022-11-28T17:14:16.562Z,31.83
2022-11-28T17:15:39.912Z,21.35
2022-11-28T17:17:03.311Z,30.55
2022-11-28T17:18:26.834Z,32.20
2022-11-28T17:19:50.293Z,24.30
2022-11-28T17:21:13.464Z,30.23
2022-11-28T17:22:41.212Z,31.80
2022-11-28T17:24:05.099Z,33.20
2022-11-28T17:25:29.875Z,31.90
2022-11-28T17:26:54.390Z,32.47
2022-11-28T17:28:22.291Z,35.75
2022-11-28T17:29:47.627Z,26.50
2022-11-28T17:31:13.793Z,23.70
2022-11-28T17:32:37.231Z,32.88
2022-11-28T17:34:00.602Z,22.70
2022-11-28T17:35:25.843Z,35.03
2022-11-28T17:36:49.251Z,29.70
2022-11-28T17:38:11.664Z,30.40
2022-11-28T17:39:35.139Z,35.13
2022-11-28T17:40:59.793Z,31.38
2022-11-28T17:42:23.153Z,32.20
2022-11-28T17:43:46.530Z,30.40
2022-11-28T17:45:14.144Z,35.15
2022-11-28T17:46:37.523Z,25.00
2022-11-28T17:48:00.874Z,35.58
2022-11-28T17:49:24.469Z,29.98
2022-11-28T17:50:49.109Z,29.58
2022-11-28T17:52:12.497Z,38.90
2022-11-28T17:53:35.952Z,40.42
2022-11-28T17:55:06.933Z,18.02
2022-11-28T17:56:32.482Z,11.82
2022-11-28T17:57:55.838Z,34.72
2022-11-28T17:59:20.832Z,26.33
2022-11-28T18:00:44.313Z,31.52
2022-11-28T18:02:08.043Z,27.30
2022-11-28T18:03:31.436Z,32.72
2022-11-28T18:04:54.783Z,45.72
2022-11-28T18:06:18.652Z,29.92
2022-11-28T18:07:42.072Z,35.50
2022-11-28T18:09:11.590Z,39.08
2022-11-28T18:10:35.608Z,35.95
2022-11-28T18:12:00.347Z,41.58
2022-11-28T18:13:23.858Z,37.13
2022-11-28T18:14:47.245Z,41.35
2022-11-28T18:16:12.803Z,33.10
2022-11-28T18:17:36.224Z,38.55
2022-11-28T18:18:59.787Z,36.53
2022-11-28T18:20:23.306Z,38.10
2022-11-28T18:21:46.699Z,36.63
2022-11-28T18:23:12.396Z,38.47
2022-11-28T18:24:36.146Z,34.97
2022-11-28T18:25:59.542Z,37.25
2022-11-28T18:27:24.260Z,44.35
2022-11-28T18:28:47.691Z,42.80
2022-11-28T18:30:13.460Z,40.72
2022-11-28T18:31:37.476Z,44.30
2022-11-28T18:33:00.894Z,34.25
2022-11-28T18:34:24.243Z,40.50
2022-11-28T18:35:47.610Z,43.35
2022-11-28T18:37:10.999Z,38.42
2022-11-28T18:38:34.382Z,32.85
2022-11-28T18:39:57.725Z,51.05
2022-11-28T18:41:21.092Z,33.38
2022-11-28T18:42:45.812Z,38.95
2022-11-28T18:44:09.243Z,43.13
2022-11-28T18:45:32.727Z,40.88
2022-11-28T18:46:56.129Z,31.17
2022-11-28T18:48:19.622Z,37.83
2022-11-28T18:49:43.261Z,36.63
2022-11-28T18:51:12.372Z,31.52
2022-11-28T18:52:35.846Z,41.40
2022-11-28T18:53:59.866Z,18.77